Pagina principale
METAR-TAF:

METAR-TAF

Aeroporti :

Alexander City, Alabama, Stati Uniti

latitudine: 32-54-53N, longitudine: 085-57-46W, altezza: 209 m

Osservazione

Il bollettino è stato emesso 25 minuti fa, alle 09:55 UTC
Vento calmo
Temperature -4°C
Umidità 100%
Pressione 1025 hPa
Visibilità: 16.1 km
Cielo sereno

METAR: KALX 120955Z AUTO 00000KT 10SM CLR M04/M04 A3026 RMK AO2 T10361036

Ora: 04:20 (10:20 UTC)


TAF: mancante

Osservazioni e previsioni meteorologiche di più di 4000 aeroporti (messaggi METAR e TAF).

Le stazioni disponibili sono rappresentate dai dischi gialli e rossi sulla carta.

Puntare il mouse per vedere il nome della stazione.

Clicca sopra per visualizzare le osservazioni e previsioni meteorologiche.

Per cambiare la mappa : fare clic sui pulsanti verdi con una croce nera per ingrandire, il pulsante verde con un trattino per diminuire, o sulla freccia verde per le mappe adiacenti.


METAR-TAF: